sensor_id;sensor_type;location;lat;lon;timestamp;pressure;altitude;pressure_sealevel;temperature;humidity
70930;BME280;58588;48.102;19.682;2022-07-06T00:01:17;99188.88;;;20.03;69.44
70930;BME280;58588;48.102;19.682;2022-07-06T00:04:19;99195.38;;;19.97;68.70
70930;BME280;58588;48.102;19.682;2022-07-06T00:07:21;99186.88;;;19.93;67.41
70930;BME280;58588;48.102;19.682;2022-07-06T00:10:24;99193.50;;;19.97;67.36
70930;BME280;58588;48.102;19.682;2022-07-06T00:13:26;99195.66;;;19.95;67.42
70930;BME280;58588;48.102;19.682;2022-07-06T00:16:29;99197.28;;;19.96;67.90
70930;BME280;58588;48.102;19.682;2022-07-06T00:19:31;99195.56;;;19.90;67.69
70930;BME280;58588;48.102;19.682;2022-07-06T00:22:33;99191.00;;;19.96;67.29
70930;BME280;58588;48.102;19.682;2022-07-06T00:25:35;99196.72;;;19.94;72.37
70930;BME280;58588;48.102;19.682;2022-07-06T00:28:37;99195.28;;;19.87;67.97
70930;BME280;58588;48.102;19.682;2022-07-06T00:31:41;99202.47;;;19.93;67.28
70930;BME280;58588;48.102;19.682;2022-07-06T00:34:43;99206.97;;;19.82;68.30
70930;BME280;58588;48.102;19.682;2022-07-06T00:37:44;99198.19;;;19.80;69.79
70930;BME280;58588;48.102;19.682;2022-07-06T00:40:46;99197.25;;;19.91;73.15
70930;BME280;58588;48.102;19.682;2022-07-06T00:43:53;99203.16;;;19.83;72.51
70930;BME280;58588;48.102;19.682;2022-07-06T00:46:57;99202.84;;;19.80;73.54
70930;BME280;58588;48.102;19.682;2022-07-06T00:50:00;99195.88;;;19.72;74.03
70930;BME280;58588;48.102;19.682;2022-07-06T00:53:21;99197.91;;;19.60;71.73
70930;BME280;58588;48.102;19.682;2022-07-06T00:56:23;99202.19;;;19.72;71.82
70930;BME280;58588;48.102;19.682;2022-07-06T00:59:27;99200.03;;;19.74;73.04
70930;BME280;58588;48.102;19.682;2022-07-06T01:02:32;99196.84;;;19.83;75.31
70930;BME280;58588;48.102;19.682;2022-07-06T01:05:34;99205.63;;;19.85;73.38
70930;BME280;58588;48.102;19.682;2022-07-06T01:08:37;99193.38;;;19.87;72.88
70930;BME280;58588;48.102;19.682;2022-07-06T01:11:39;99198.28;;;19.85;72.79
70930;BME280;58588;48.102;19.682;2022-07-06T01:14:42;99191.72;;;19.86;74.25
70930;BME280;58588;48.102;19.682;2022-07-06T01:17:46;99198.31;;;19.90;75.23
70930;BME280;58588;48.102;19.682;2022-07-06T01:20:49;99197.56;;;19.95;73.99
70930;BME280;58588;48.102;19.682;2022-07-06T01:23:51;99197.25;;;19.91;74.27
70930;BME280;58588;48.102;19.682;2022-07-06T01:26:53;99194.94;;;19.83;76.23
70930;BME280;58588;48.102;19.682;2022-07-06T01:29:55;99203.16;;;19.83;76.16
70930;BME280;58588;48.102;19.682;2022-07-06T01:32:57;99198.31;;;19.90;74.82
70930;BME280;58588;48.102;19.682;2022-07-06T01:36:01;99198.38;;;19.95;73.51
70930;BME280;58588;48.102;19.682;2022-07-06T01:39:03;99194.19;;;19.88;76.00
70930;BME280;58588;48.102;19.682;2022-07-06T01:42:05;99201.50;;;19.82;73.00
70930;BME280;58588;48.102;19.682;2022-07-06T01:45:08;99216.94;;;19.71;73.42
70930;BME280;58588;48.102;19.682;2022-07-06T01:48:10;99220.38;;;19.45;70.47
70930;BME280;58588;48.102;19.682;2022-07-06T01:51:13;99227.47;;;19.46;69.80
70930;BME280;58588;48.102;19.682;2022-07-06T01:54:15;99234.44;;;19.53;70.83
70930;BME280;58588;48.102;19.682;2022-07-06T01:57:17;99235.50;;;19.52;73.83
70930;BME280;58588;48.102;19.682;2022-07-06T02:00:19;99245.22;;;19.60;73.11
70930;BME280;58588;48.102;19.682;2022-07-06T02:03:21;99248.56;;;19.62;76.03
70930;BME280;58588;48.102;19.682;2022-07-06T02:06:25;99249.75;;;19.55;73.96
70930;BME280;58588;48.102;19.682;2022-07-06T02:09:27;99245.38;;;19.53;72.30
70930;BME280;58588;48.102;19.682;2022-07-06T02:12:29;99244.97;;;19.45;70.29
70930;BME280;58588;48.102;19.682;2022-07-06T02:15:31;99247.44;;;19.46;72.59
70930;BME280;58588;48.102;19.682;2022-07-06T02:18:32;99252.19;;;19.51;73.83
70930;BME280;58588;48.102;19.682;2022-07-06T02:21:36;99256.91;;;19.39;72.27
70930;BME280;58588;48.102;19.682;2022-07-06T02:24:38;99255.81;;;19.40;73.33
70930;BME280;58588;48.102;19.682;2022-07-06T02:27:40;99263.19;;;19.39;73.18
70930;BME280;58588;48.102;19.682;2022-07-06T02:30:42;99266.34;;;19.48;71.17
70930;BME280;58588;48.102;19.682;2022-07-06T02:33:44;99258.56;;;19.40;71.21
70930;BME280;58588;48.102;19.682;2022-07-06T02:36:47;99249.69;;;19.49;71.64
70930;BME280;58588;48.102;19.682;2022-07-06T02:39:49;99253.25;;;19.33;74.11
70930;BME280;58588;48.102;19.682;2022-07-06T02:42:51;99256.00;;;19.33;73.08
70930;BME280;58588;48.102;19.682;2022-07-06T02:45:53;99262.28;;;19.34;71.70
70930;BME280;58588;48.102;19.682;2022-07-06T02:48:55;99269.75;;;19.38;71.92
70930;BME280;58588;48.102;19.682;2022-07-06T02:51:59;99268.31;;;19.36;68.96
70930;BME280;58588;48.102;19.682;2022-07-06T02:55:01;99272.47;;;19.38;71.05
70930;BME280;58588;48.102;19.682;2022-07-06T02:58:02;99275.28;;;19.27;71.84
70930;BME280;58588;48.102;19.682;2022-07-06T03:01:04;99282.16;;;19.29;73.13
70930;BME280;58588;48.102;19.682;2022-07-06T03:04:06;99273.41;;;19.44;74.08
70930;BME280;58588;48.102;19.682;2022-07-06T03:07:10;99268.16;;;19.42;75.32
70930;BME280;58588;48.102;19.682;2022-07-06T03:10:12;99269.56;;;19.28;72.12
70930;BME280;58588;48.102;19.682;2022-07-06T03:13:14;99272.56;;;19.27;74.81
70930;BME280;58588;48.102;19.682;2022-07-06T03:16:16;99271.31;;;19.34;74.45
70930;BME280;58588;48.102;19.682;2022-07-06T03:19:18;99273.31;;;19.22;73.14
70930;BME280;58588;48.102;19.682;2022-07-06T03:22:21;99285.41;;;19.26;71.77
70930;BME280;58588;48.102;19.682;2022-07-06T03:25:23;99294.19;;;19.28;71.97
70930;BME280;58588;48.102;19.682;2022-07-06T03:28:25;99294.25;;;19.33;72.76
70930;BME280;58588;48.102;19.682;2022-07-06T03:31:27;99300.03;;;19.37;76.04
70930;BME280;58588;48.102;19.682;2022-07-06T03:34:30;99295.09;;;19.34;75.74
70930;BME280;58588;48.102;19.682;2022-07-06T03:37:33;99293.19;;;19.34;73.47
70930;BME280;58588;48.102;19.682;2022-07-06T03:40:35;99285.91;;;19.40;73.02
70930;BME280;58588;48.102;19.682;2022-07-06T03:43:37;99289.72;;;19.39;73.47
70930;BME280;58588;48.102;19.682;2022-07-06T03:46:39;99287.97;;;19.49;74.84
70930;BME280;58588;48.102;19.682;2022-07-06T03:49:41;99289.19;;;19.42;73.18
70930;BME280;58588;48.102;19.682;2022-07-06T03:52:44;99291.75;;;19.48;74.50
70930;BME280;58588;48.102;19.682;2022-07-06T03:55:46;99288.56;;;19.51;76.07
70930;BME280;58588;48.102;19.682;2022-07-06T03:59:08;99289.84;;;19.49;74.15
70930;BME280;58588;48.102;19.682;2022-07-06T04:02:10;99306.34;;;19.54;76.72
70930;BME280;58588;48.102;19.682;2022-07-06T04:05:12;99305.25;;;19.55;77.49
70930;BME280;58588;48.102;19.682;2022-07-06T04:08:15;99313.59;;;19.60;75.54
70930;BME280;58588;48.102;19.682;2022-07-06T04:11:17;99308.44;;;19.47;75.57
70930;BME280;58588;48.102;19.682;2022-07-06T04:14:19;99310.63;;;19.62;79.39
70930;BME280;58588;48.102;19.682;2022-07-06T04:17:21;99314.31;;;19.72;78.43
70930;BME280;58588;48.102;19.682;2022-07-06T04:20:41;99315.75;;;19.75;78.92
70930;BME280;58588;48.102;19.682;2022-07-06T04:23:44;99315.00;;;19.80;79.96
70930;BME280;58588;48.102;19.682;2022-07-06T04:26:46;99302.97;;;19.81;76.99
70930;BME280;58588;48.102;19.682;2022-07-06T04:29:48;99305.78;;;19.86;78.88
70930;BME280;58588;48.102;19.682;2022-07-06T04:32:50;99312.41;;;19.90;79.77
70930;BME280;58588;48.102;19.682;2022-07-06T04:35:51;99308.53;;;19.86;80.47
70930;BME280;58588;48.102;19.682;2022-07-06T04:38:55;99308.38;;;19.75;78.53
70930;BME280;58588;48.102;19.682;2022-07-06T04:41:57;99293.69;;;19.82;79.14
70930;BME280;58588;48.102;19.682;2022-07-06T04:44:59;99296.78;;;19.68;77.64
70930;BME280;58588;48.102;19.682;2022-07-06T04:48:01;99301.72;;;19.71;78.25
70930;BME280;58588;48.102;19.682;2022-07-06T04:51:03;99303.47;;;19.77;80.06
70930;BME280;58588;48.102;19.682;2022-07-06T04:54:06;99317.47;;;19.81;77.96
70930;BME280;58588;48.102;19.682;2022-07-06T04:57:08;99323.63;;;19.71;79.89
70930;BME280;58588;48.102;19.682;2022-07-06T05:00:11;99319.41;;;19.64;81.42
70930;BME280;58588;48.102;19.682;2022-07-06T05:03:18;99322.66;;;19.49;81.09
70930;BME280;58588;48.102;19.682;2022-07-06T05:06:27;99322.66;;;19.49;80.54
70930;BME280;58588;48.102;19.682;2022-07-06T05:09:34;99327.88;;;19.62;80.82
70930;BME280;58588;48.102;19.682;2022-07-06T05:12:36;99334.47;;;19.66;79.44
70930;BME280;58588;48.102;19.682;2022-07-06T05:15:38;99329.31;;;19.53;79.35
70930;BME280;58588;48.102;19.682;2022-07-06T05:18:40;99343.50;;;19.67;79.61
70930;BME280;58588;48.102;19.682;2022-07-06T05:21:42;99341.75;;;19.61;79.59
70930;BME280;58588;48.102;19.682;2022-07-06T05:24:46;99355.03;;;19.69;79.38
70930;BME280;58588;48.102;19.682;2022-07-06T05:27:47;99346.75;;;19.64;78.89
70930;BME280;58588;48.102;19.682;2022-07-06T05:30:49;99347.16;;;19.72;80.48
70930;BME280;58588;48.102;19.682;2022-07-06T05:33:51;99350.88;;;19.66;79.83
70930;BME280;58588;48.102;19.682;2022-07-06T05:36:53;99353.44;;;19.90;81.21
70930;BME280;58588;48.102;19.682;2022-07-06T05:39:57;99350.03;;;19.99;81.37
70930;BME280;58588;48.102;19.682;2022-07-06T05:42:59;99352.56;;;20.23;82.64
70930;BME280;58588;48.102;19.682;2022-07-06T05:46:00;99347.66;;;20.25;82.30
70930;BME280;58588;48.102;19.682;2022-07-06T05:49:02;99346.72;;;20.36;82.61
70930;BME280;58588;48.102;19.682;2022-07-06T05:52:22;99349.25;;;20.21;81.85
70930;BME280;58588;48.102;19.682;2022-07-06T05:55:26;99347.81;;;20.35;82.25
70930;BME280;58588;48.102;19.682;2022-07-06T05:58:28;99355.78;;;20.37;82.17
70930;BME280;58588;48.102;19.682;2022-07-06T06:01:30;99351.03;;;20.49;82.39
70930;BME280;58588;48.102;19.682;2022-07-06T06:04:32;99353.72;;;20.66;82.63
70930;BME280;58588;48.102;19.682;2022-07-06T06:07:34;99352.31;;;20.63;82.41
70930;BME280;58588;48.102;19.682;2022-07-06T06:10:38;99350.84;;;20.77;82.45
70930;BME280;58588;48.102;19.682;2022-07-06T06:13:40;99360.78;;;21.10;82.31
70930;BME280;58588;48.102;19.682;2022-07-06T06:16:42;99355.63;;;21.36;81.97
70930;BME280;58588;48.102;19.682;2022-07-06T06:19:44;99344.88;;;21.61;81.11
70930;BME280;58588;48.102;19.682;2022-07-06T06:22:50;99352.59;;;21.70;81.41
70930;BME280;58588;48.102;19.682;2022-07-06T06:25:54;99338.19;;;21.84;81.10
70930;BME280;58588;48.102;19.682;2022-07-06T06:28:56;99350.13;;;22.05;79.92
70930;BME280;58588;48.102;19.682;2022-07-06T06:31:58;99363.72;;;22.22;79.52
70930;BME280;58588;48.102;19.682;2022-07-06T06:35:00;99362.41;;;22.35;79.73
70930;BME280;58588;48.102;19.682;2022-07-06T06:38:02;99357.44;;;22.27;78.82
70930;BME280;58588;48.102;19.682;2022-07-06T06:41:05;99354.50;;;22.01;78.05
70930;BME280;58588;48.102;19.682;2022-07-06T06:44:07;99366.78;;;22.31;77.78
70930;BME280;58588;48.102;19.682;2022-07-06T06:47:09;99369.34;;;22.48;73.87
70930;BME280;58588;48.102;19.682;2022-07-06T06:50:11;99370.84;;;22.76;74.20
70930;BME280;58588;48.102;19.682;2022-07-06T06:53:13;99371.00;;;23.11;72.33
70930;BME280;58588;48.102;19.682;2022-07-06T06:56:17;99367.75;;;23.35;71.01
70930;BME280;58588;48.102;19.682;2022-07-06T06:59:18;99372.69;;;23.22;68.59
70930;BME280;58588;48.102;19.682;2022-07-06T07:02:20;99376.03;;;23.40;70.12
70930;BME280;58588;48.102;19.682;2022-07-06T07:05:22;99376.28;;;23.38;71.30
70930;BME280;58588;48.102;19.682;2022-07-06T07:08:24;99369.19;;;23.73;70.07
70930;BME280;58588;48.102;19.682;2022-07-06T07:11:28;99374.69;;;23.78;67.88
70930;BME280;58588;48.102;19.682;2022-07-06T07:14:30;99378.53;;;24.13;67.52
70930;BME280;58588;48.102;19.682;2022-07-06T07:17:32;99391.72;;;24.26;65.98
70930;BME280;58588;48.102;19.682;2022-07-06T07:20:34;99393.94;;;24.14;66.32
70930;BME280;58588;48.102;19.682;2022-07-06T07:23:36;99399.44;;;24.49;65.75
70930;BME280;58588;48.102;19.682;2022-07-06T07:26:39;99407.16;;;24.42;63.31
70930;BME280;58588;48.102;19.682;2022-07-06T07:29:41;99399.31;;;24.80;64.08
70930;BME280;58588;48.102;19.682;2022-07-06T07:32:43;99405.13;;;24.78;62.01
70930;BME280;58588;48.102;19.682;2022-07-06T07:35:45;99402.50;;;25.13;61.55
70930;BME280;58588;48.102;19.682;2022-07-06T07:38:47;99405.25;;;25.18;61.57
70930;BME280;58588;48.102;19.682;2022-07-06T07:41:50;99408.22;;;25.31;60.51
70930;BME280;58588;48.102;19.682;2022-07-06T07:44:52;99409.25;;;25.41;62.01
70930;BME280;58588;48.102;19.682;2022-07-06T07:47:54;99405.50;;;25.66;61.48
70930;BME280;58588;48.102;19.682;2022-07-06T07:50:56;99410.00;;;25.91;60.43
70930;BME280;58588;48.102;19.682;2022-07-06T07:53:58;99401.97;;;25.94;60.03
70930;BME280;58588;48.102;19.682;2022-07-06T07:57:02;99410.50;;;26.27;59.63
70930;BME280;58588;48.102;19.682;2022-07-06T08:00:05;99414.00;;;26.37;57.25
70930;BME280;58588;48.102;19.682;2022-07-06T08:03:07;99412.41;;;26.60;55.93
70930;BME280;58588;48.102;19.682;2022-07-06T08:06:09;99417.84;;;26.47;54.62
70930;BME280;58588;48.102;19.682;2022-07-06T08:09:11;99424.22;;;26.42;55.73
70930;BME280;58588;48.102;19.682;2022-07-06T08:12:14;99419.47;;;26.48;53.82
70930;BME280;58588;48.102;19.682;2022-07-06T08:15:16;99421.72;;;26.93;53.66
70930;BME280;58588;48.102;19.682;2022-07-06T08:18:18;99426.19;;;27.13;54.28
70930;BME280;58588;48.102;19.682;2022-07-06T08:21:20;99429.31;;;26.83;52.94
70930;BME280;58588;48.102;19.682;2022-07-06T08:24:22;99427.34;;;27.31;50.32
70930;BME280;58588;48.102;19.682;2022-07-06T08:27:26;99439.53;;;27.30;52.36
70930;BME280;58588;48.102;19.682;2022-07-06T08:30:28;99437.97;;;27.62;52.38
70930;BME280;58588;48.102;19.682;2022-07-06T08:33:31;99438.19;;;27.46;50.57
70930;BME280;58588;48.102;19.682;2022-07-06T08:36:33;99440.97;;;28.03;49.41
70930;BME280;58588;48.102;19.682;2022-07-06T08:39:35;99438.72;;;28.05;50.15
70930;BME280;58588;48.102;19.682;2022-07-06T08:42:39;99447.25;;;27.52;50.09
70930;BME280;58588;48.102;19.682;2022-07-06T08:45:44;99440.47;;;28.01;50.15
70930;BME280;58588;48.102;19.682;2022-07-06T08:48:48;99441.94;;;27.93;47.13
70930;BME280;58588;48.102;19.682;2022-07-06T08:51:51;99449.00;;;28.18;47.28
70930;BME280;58588;48.102;19.682;2022-07-06T08:54:54;99443.97;;;28.39;47.06
70930;BME280;58588;48.102;19.682;2022-07-06T08:57:57;99442.44;;;28.61;47.10
70930;BME280;58588;48.102;19.682;2022-07-06T09:00:59;99440.88;;;28.41;44.97
70930;BME280;58588;48.102;19.682;2022-07-06T09:04:03;99445.03;;;28.43;44.98
70930;BME280;58588;48.102;19.682;2022-07-06T09:07:07;99444.09;;;28.48;45.64
70930;BME280;58588;48.102;19.682;2022-07-06T09:10:09;99438.50;;;28.94;42.51
70930;BME280;58588;48.102;19.682;2022-07-06T09:13:13;99432.53;;;29.01;44.20
70930;BME280;58588;48.102;19.682;2022-07-06T09:16:15;99427.72;;;28.93;44.49
70930;BME280;58588;48.102;19.682;2022-07-06T09:19:17;99436.03;;;28.93;42.87
70930;BME280;58588;48.102;19.682;2022-07-06T09:22:26;99430.22;;;29.58;42.06
70930;BME280;58588;48.102;19.682;2022-07-06T09:25:29;99429.69;;;30.15;37.24
70930;BME280;58588;48.102;19.682;2022-07-06T09:28:42;99418.63;;;30.54;37.92
70930;BME280;58588;48.102;19.682;2022-07-06T09:31:56;99414.63;;;30.16;36.79
70930;BME280;58588;48.102;19.682;2022-07-06T09:34:58;99409.63;;;30.04;38.46
70930;BME280;58588;48.102;19.682;2022-07-06T09:38:03;99412.75;;;30.64;37.24
70930;BME280;58588;48.102;19.682;2022-07-06T09:41:05;99415.34;;;31.49;36.39
70930;BME280;58588;48.102;19.682;2022-07-06T09:44:10;99424.94;;;30.69;37.14
70930;BME280;58588;48.102;19.682;2022-07-06T09:47:12;99421.19;;;29.97;37.53
70930;BME280;58588;48.102;19.682;2022-07-06T09:50:15;99424.66;;;30.03;39.56
70930;BME280;58588;48.102;19.682;2022-07-06T09:53:18;99428.84;;;30.68;36.72
70930;BME280;58588;48.102;19.682;2022-07-06T09:56:20;99421.75;;;30.08;37.73
70930;BME280;58588;48.102;19.682;2022-07-06T09:59:25;99427.13;;;29.46;38.15
70930;BME280;58588;48.102;19.682;2022-07-06T10:02:27;99426.50;;;30.07;38.06
70930;BME280;58588;48.102;19.682;2022-07-06T10:05:30;99423.91;;;30.64;37.67
70930;BME280;58588;48.102;19.682;2022-07-06T10:08:33;99421.75;;;30.92;34.76
70930;BME280;58588;48.102;19.682;2022-07-06T10:11:38;99422.09;;;30.29;34.13
70930;BME280;58588;48.102;19.682;2022-07-06T10:14:42;99423.69;;;30.52;35.88
70930;BME280;58588;48.102;19.682;2022-07-06T10:17:46;99414.88;;;30.99;36.73
70930;BME280;58588;48.102;19.682;2022-07-06T10:20:49;99417.16;;;31.88;34.28
70930;BME280;58588;48.102;19.682;2022-07-06T10:23:51;99400.94;;;30.90;33.41
70930;BME280;58588;48.102;19.682;2022-07-06T10:26:54;99407.47;;;31.94;34.37
70930;BME280;58588;48.102;19.682;2022-07-06T10:29:57;99412.75;;;32.69;32.00
70930;BME280;58588;48.102;19.682;2022-07-06T10:33:00;99399.69;;;32.90;31.25
70930;BME280;58588;48.102;19.682;2022-07-06T10:36:03;99402.88;;;33.31;30.73
70930;BME280;58588;48.102;19.682;2022-07-06T10:39:05;99401.16;;;33.47;29.51
70930;BME280;58588;48.102;19.682;2022-07-06T10:42:44;99403.22;;;33.29;30.26
70930;BME280;58588;48.102;19.682;2022-07-06T10:45:52;99387.56;;;34.12;29.02
70930;BME280;58588;48.102;19.682;2022-07-06T10:48:55;99392.44;;;32.81;30.27
70930;BME280;58588;48.102;19.682;2022-07-06T10:51:58;99384.94;;;32.34;30.67
70930;BME280;58588;48.102;19.682;2022-07-06T10:55:00;99395.72;;;32.91;31.36
70930;BME280;58588;48.102;19.682;2022-07-06T10:58:02;99399.31;;;32.54;30.02
70930;BME280;58588;48.102;19.682;2022-07-06T11:01:06;99391.56;;;32.97;29.39
70930;BME280;58588;48.102;19.682;2022-07-06T11:04:08;99395.34;;;32.63;31.01
70930;BME280;58588;48.102;19.682;2022-07-06T11:07:11;99394.41;;;33.18;31.52
70930;BME280;58588;48.102;19.682;2022-07-06T11:10:13;99397.84;;;33.87;30.52
70930;BME280;58588;48.102;19.682;2022-07-06T11:13:25;99391.81;;;33.34;30.17
70930;BME280;58588;48.102;19.682;2022-07-06T11:16:30;99396.06;;;33.82;28.46
70930;BME280;58588;48.102;19.682;2022-07-06T11:19:34;99395.91;;;33.16;27.41
70930;BME280;58588;48.102;19.682;2022-07-06T11:22:37;99397.28;;;32.07;27.61
70930;BME280;58588;48.102;19.682;2022-07-06T11:25:39;99388.81;;;32.50;25.88
70930;BME280;58588;48.102;19.682;2022-07-06T11:28:42;99400.88;;;33.61;27.96
70930;BME280;58588;48.102;19.682;2022-07-06T11:31:50;99392.59;;;34.51;26.77
70930;BME280;58588;48.102;19.682;2022-07-06T11:34:53;99396.16;;;34.97;24.18
70930;BME280;58588;48.102;19.682;2022-07-06T11:37:55;99412.94;;;33.52;29.48
70930;BME280;58588;48.102;19.682;2022-07-06T11:40:57;99412.06;;;31.47;33.15
70930;BME280;58588;48.102;19.682;2022-07-06T11:43:59;99411.69;;;30.43;35.38
70930;BME280;58588;48.102;19.682;2022-07-06T11:47:04;99422.81;;;30.43;35.41
70930;BME280;58588;48.102;19.682;2022-07-06T11:50:07;99418.41;;;29.52;37.36
70930;BME280;58588;48.102;19.682;2022-07-06T11:53:10;99414.28;;;30.39;36.65
70930;BME280;58588;48.102;19.682;2022-07-06T11:56:14;99415.38;;;30.92;35.21
70930;BME280;58588;48.102;19.682;2022-07-06T11:59:16;99414.16;;;31.24;34.73
70930;BME280;58588;48.102;19.682;2022-07-06T12:02:23;99420.75;;;31.63;33.19
70930;BME280;58588;48.102;19.682;2022-07-06T12:05:29;99412.53;;;31.66;33.85
70930;BME280;58588;48.102;19.682;2022-07-06T12:08:32;99418.44;;;31.65;34.24
70930;BME280;58588;48.102;19.682;2022-07-06T12:11:36;99415.69;;;31.56;34.22
70930;BME280;58588;48.102;19.682;2022-07-06T12:14:41;99417.28;;;29.76;34.80
70930;BME280;58588;48.102;19.682;2022-07-06T12:17:48;99405.47;;;30.15;36.19
70930;BME280;58588;48.102;19.682;2022-07-06T12:20:52;99406.66;;;31.68;34.11
70930;BME280;58588;48.102;19.682;2022-07-06T12:23:56;99397.16;;;32.04;32.35
70930;BME280;58588;48.102;19.682;2022-07-06T12:26:58;99400.78;;;32.60;32.44
70930;BME280;58588;48.102;19.682;2022-07-06T12:30:12;99393.53;;;33.06;30.41
70930;BME280;58588;48.102;19.682;2022-07-06T12:33:16;99391.09;;;33.25;30.54
70930;BME280;58588;48.102;19.682;2022-07-06T12:36:18;99391.47;;;33.44;32.54
70930;BME280;58588;48.102;19.682;2022-07-06T12:39:21;99380.34;;;32.76;31.54
70930;BME280;58588;48.102;19.682;2022-07-06T12:42:24;99393.53;;;31.68;33.53
70930;BME280;58588;48.102;19.682;2022-07-06T12:45:26;99390.72;;;31.42;33.78
70930;BME280;58588;48.102;19.682;2022-07-06T12:48:30;99384.44;;;30.62;35.42
70930;BME280;58588;48.102;19.682;2022-07-06T12:51:56;99374.84;;;30.37;37.56
70930;BME280;58588;48.102;19.682;2022-07-06T12:55:00;99370.59;;;31.37;38.44
70930;BME280;58588;48.102;19.682;2022-07-06T12:58:02;99377.13;;;31.58;33.83
70930;BME280;58588;48.102;19.682;2022-07-06T13:01:04;99382.63;;;30.98;33.87
70930;BME280;58588;48.102;19.682;2022-07-06T13:04:08;99394.00;;;30.70;35.16
70930;BME280;58588;48.102;19.682;2022-07-06T13:07:17;99392.94;;;30.26;35.04
70930;BME280;58588;48.102;19.682;2022-07-06T13:10:20;99398.41;;;29.64;37.42
70930;BME280;58588;48.102;19.682;2022-07-06T13:13:22;99391.56;;;29.20;33.52
70930;BME280;58588;48.102;19.682;2022-07-06T13:16:24;99393.16;;;29.49;33.50
70930;BME280;58588;48.102;19.682;2022-07-06T13:19:33;99388.41;;;30.30;32.79
70930;BME280;58588;48.102;19.682;2022-07-06T13:22:36;99383.69;;;31.54;29.57
70930;BME280;58588;48.102;19.682;2022-07-06T13:25:38;99376.28;;;32.10;28.35
70930;BME280;58588;48.102;19.682;2022-07-06T13:28:40;99374.00;;;32.03;27.13
70930;BME280;58588;48.102;19.682;2022-07-06T13:31:42;99389.91;;;31.33;28.90
70930;BME280;58588;48.102;19.682;2022-07-06T13:34:45;99378.22;;;30.03;26.95
70930;BME280;58588;48.102;19.682;2022-07-06T13:37:47;99381.41;;;30.10;26.99
70930;BME280;58588;48.102;19.682;2022-07-06T13:40:51;99374.97;;;30.10;25.78
70930;BME280;58588;48.102;19.682;2022-07-06T13:43:53;99375.47;;;30.65;27.03
70930;BME280;58588;48.102;19.682;2022-07-06T13:46:55;99374.69;;;31.31;26.84
70930;BME280;58588;48.102;19.682;2022-07-06T13:49:58;99378.75;;;32.11;25.80
70930;BME280;58588;48.102;19.682;2022-07-06T13:53:00;99383.16;;;32.68;25.02
70930;BME280;58588;48.102;19.682;2022-07-06T13:56:02;99368.13;;;32.90;24.89
70930;BME280;58588;48.102;19.682;2022-07-06T13:59:04;99384.41;;;32.79;25.18
70930;BME280;58588;48.102;19.682;2022-07-06T14:02:06;99384.34;;;33.26;24.66
70930;BME280;58588;48.102;19.682;2022-07-06T14:05:10;99375.47;;;32.65;24.71
70930;BME280;58588;48.102;19.682;2022-07-06T14:08:12;99381.38;;;32.16;24.61
70930;BME280;58588;48.102;19.682;2022-07-06T14:11:14;99399.19;;;32.80;24.83
70930;BME280;58588;48.102;19.682;2022-07-06T14:14:16;99391.56;;;32.97;25.71
70930;BME280;58588;48.102;19.682;2022-07-06T14:17:18;99377.59;;;33.27;25.44
70930;BME280;58588;48.102;19.682;2022-07-06T14:20:22;99392.44;;;33.19;25.37
70930;BME280;58588;48.102;19.682;2022-07-06T14:23:24;99391.81;;;33.13;26.01
70930;BME280;58588;48.102;19.682;2022-07-06T14:26:26;99401.56;;;33.07;25.27
70930;BME280;58588;48.102;19.682;2022-07-06T14:29:28;99400.34;;;33.17;25.02
70930;BME280;58588;48.102;19.682;2022-07-06T14:32:30;99402.09;;;33.72;24.91
70930;BME280;58588;48.102;19.682;2022-07-06T14:35:34;99407.53;;;32.50;24.05
70930;BME280;58588;48.102;19.682;2022-07-06T14:38:36;99398.63;;;33.54;24.10
70930;BME280;58588;48.102;19.682;2022-07-06T14:41:38;99395.78;;;33.12;23.86
70930;BME280;58588;48.102;19.682;2022-07-06T14:44:40;99395.78;;;33.42;25.44
70930;BME280;58588;48.102;19.682;2022-07-06T14:47:43;99396.69;;;32.95;23.88
70930;BME280;58588;48.102;19.682;2022-07-06T14:50:46;99394.59;;;32.45;25.14
70930;BME280;58588;48.102;19.682;2022-07-06T14:53:48;99391.72;;;33.31;24.75
70930;BME280;58588;48.102;19.682;2022-07-06T14:56:50;99386.41;;;33.79;24.26
70930;BME280;58588;48.102;19.682;2022-07-06T14:59:52;99383.59;;;33.79;24.49
70930;BME280;58588;48.102;19.682;2022-07-06T15:02:54;99389.94;;;34.22;24.03
70930;BME280;58588;48.102;19.682;2022-07-06T15:05:58;99382.31;;;33.77;23.08
70930;BME280;58588;48.102;19.682;2022-07-06T15:09:00;99372.34;;;32.11;25.50
70930;BME280;58588;48.102;19.682;2022-07-06T15:12:05;99387.50;;;32.86;24.60
70930;BME280;58588;48.102;19.682;2022-07-06T15:15:08;99390.81;;;31.03;24.79
70930;BME280;58588;48.102;19.682;2022-07-06T15:18:10;99382.38;;;29.92;26.53
70930;BME280;58588;48.102;19.682;2022-07-06T15:21:13;99392.81;;;29.28;27.23
70930;BME280;58588;48.102;19.682;2022-07-06T15:24:15;99387.81;;;30.11;26.08
70930;BME280;58588;48.102;19.682;2022-07-06T15:27:17;99387.94;;;30.77;25.71
70930;BME280;58588;48.102;19.682;2022-07-06T15:30:19;99384.09;;;31.04;24.77
70930;BME280;58588;48.102;19.682;2022-07-06T15:33:21;99393.38;;;31.48;25.51
70930;BME280;58588;48.102;19.682;2022-07-06T15:36:25;99381.25;;;31.87;25.09
70930;BME280;58588;48.102;19.682;2022-07-06T15:39:27;99392.72;;;31.94;24.82
70930;BME280;58588;48.102;19.682;2022-07-06T15:42:29;99401.56;;;31.96;24.09
70930;BME280;58588;48.102;19.682;2022-07-06T15:45:30;99392.47;;;33.10;23.40
70930;BME280;58588;48.102;19.682;2022-07-06T15:48:33;99395.13;;;32.77;22.93
70930;BME280;58588;48.102;19.682;2022-07-06T15:51:36;99401.75;;;31.74;24.33
70930;BME280;58588;48.102;19.682;2022-07-06T15:54:38;99393.91;;;30.53;25.00
70930;BME280;58588;48.102;19.682;2022-07-06T15:57:40;99393.81;;;30.35;25.63